createdAt,value
2023-03-05T00:00:17.248Z,43.60
2023-03-05T00:02:18.735Z,82.05
2023-03-05T00:04:20.365Z,57.20
2023-03-05T00:06:24.482Z,70.53
2023-03-05T00:08:25.938Z,42.72
2023-03-05T00:10:27.513Z,29.83
2023-03-05T00:12:29.377Z,22.88
2023-03-05T00:14:30.821Z,21.67
2023-03-05T00:16:33.002Z,19.80
2023-03-05T00:18:34.915Z,16.92
2023-03-05T00:20:36.322Z,17.50
2023-03-05T00:22:38.037Z,16.95
2023-03-05T00:24:39.512Z,16.30
2023-03-05T00:26:41.195Z,23.25
2023-03-05T00:28:42.719Z,26.45
2023-03-05T00:30:44.129Z,23.55
2023-03-05T00:32:45.541Z,23.63
2023-03-05T00:34:47.207Z,19.80
2023-03-05T00:36:51.008Z,20.35
2023-03-05T00:38:52.791Z,16.98
2023-03-05T00:40:54.302Z,24.10
2023-03-05T00:42:55.884Z,40.10
2023-03-05T00:44:57.311Z,57.03
2023-03-05T00:46:58.760Z,86.15
2023-03-05T00:49:00.326Z,63.95
2023-03-05T00:51:01.937Z,56.70
2023-03-05T00:53:03.324Z,84.88
2023-03-05T00:55:05.679Z,65.93
2023-03-05T00:57:07.105Z,56.80
2023-03-05T00:59:09.012Z,51.10
2023-03-05T01:01:11.075Z,51.70
2023-03-05T01:03:12.577Z,37.28
2023-03-05T01:05:14.980Z,42.53
2023-03-05T01:07:16.466Z,33.17
2023-03-05T01:09:17.893Z,23.77
2023-03-05T01:11:19.325Z,24.63
2023-03-05T01:13:21.027Z,27.63
2023-03-05T01:15:23.840Z,22.50
2023-03-05T01:17:26.541Z,21.73
2023-03-05T01:19:28.149Z,21.10
2023-03-05T01:21:29.742Z,21.80
2023-03-05T01:23:31.230Z,18.10
2023-03-05T01:25:32.695Z,23.92
2023-03-05T01:27:34.246Z,22.02
2023-03-05T01:29:36.875Z,24.02
2023-03-05T01:31:38.522Z,27.43
2023-03-05T01:33:40.024Z,25.25
2023-03-05T01:35:41.560Z,20.17
2023-03-05T01:37:43.065Z,20.05
2023-03-05T01:39:44.579Z,22.25
2023-03-05T01:41:46.209Z,27.83
2023-03-05T01:43:48.461Z,18.63
2023-03-05T01:46:23.797Z,22.50
2023-03-05T01:48:25.881Z,19.05
2023-03-05T01:50:27.833Z,20.88
2023-03-05T01:52:32.820Z,20.42
2023-03-05T01:54:56.923Z,25.38
2023-03-05T01:57:01.809Z,20.48
2023-03-05T01:59:03.709Z,25.13
2023-03-05T02:01:06.013Z,22.42
2023-03-05T02:03:10.602Z,42.03
2023-03-05T02:05:19.611Z,37.05
2023-03-05T02:07:21.738Z,31.08
2023-03-05T02:09:23.232Z,27.05
2023-03-05T02:11:24.662Z,24.83
2023-03-05T02:13:29.767Z,22.27
2023-03-05T02:15:33.174Z,19.48
2023-03-05T02:17:34.580Z,24.83
2023-03-05T02:19:52.138Z,24.30
2023-03-05T02:21:53.878Z,25.63
2023-03-05T02:23:55.425Z,20.40
2023-03-05T02:25:57.129Z,24.20
2023-03-05T02:28:08.024Z,28.17
2023-03-05T02:30:10.339Z,25.27
2023-03-05T02:32:13.032Z,31.45
2023-03-05T02:34:15.166Z,31.58
2023-03-05T02:36:17.931Z,29.20
2023-03-05T02:38:20.916Z,36.75
2023-03-05T02:40:22.453Z,31.85
2023-03-05T02:42:23.885Z,37.97
2023-03-05T02:44:25.306Z,35.72
2023-03-05T02:46:26.833Z,40.50
2023-03-05T02:48:28.280Z,33.58
2023-03-05T02:50:31.333Z,40.60
2023-03-05T02:52:33.092Z,37.47
2023-03-05T02:54:34.505Z,36.97
2023-03-05T02:56:36.007Z,34.00
2023-03-05T02:58:37.409Z,34.88
2023-03-05T03:00:38.848Z,31.48
2023-03-05T03:02:40.363Z,24.42
2023-03-05T03:04:41.871Z,22.83
2023-03-05T03:06:43.257Z,29.92
2023-03-05T03:08:44.650Z,22.50
2023-03-05T03:10:46.155Z,28.15
2023-03-05T03:12:47.581Z,20.65
2023-03-05T03:14:48.964Z,22.30
2023-03-05T03:16:50.504Z,28.15
2023-03-05T03:18:51.933Z,20.50
2023-03-05T03:20:53.389Z,21.17
2023-03-05T03:22:54.928Z,20.95
2023-03-05T03:24:56.373Z,24.90
2023-03-05T03:26:57.832Z,21.30
2023-03-05T03:28:59.441Z,20.30
2023-03-05T03:31:00.905Z,17.52
2023-03-05T03:33:02.493Z,19.13
2023-03-05T03:35:04.211Z,27.33
2023-03-05T03:37:06.194Z,27.73
2023-03-05T03:39:07.797Z,45.97
2023-03-05T03:41:09.702Z,62.22
2023-03-05T03:43:11.277Z,118.93
2023-03-05T03:45:13.550Z,126.93
2023-03-05T03:47:15.273Z,135.35
2023-03-05T03:49:16.650Z,117.78
2023-03-05T03:51:18.283Z,81.20
2023-03-05T03:53:19.755Z,50.95
2023-03-05T03:55:21.153Z,28.73
2023-03-05T03:57:22.612Z,39.65
2023-03-05T03:59:24.091Z,30.65
2023-03-05T04:01:25.519Z,23.40
2023-03-05T04:03:27.459Z,27.98
2023-03-05T04:05:28.873Z,19.10
2023-03-05T04:07:30.400Z,19.42
2023-03-05T04:09:32.025Z,22.63
2023-03-05T04:11:34.222Z,22.48
2023-03-05T04:13:35.712Z,31.40
2023-03-05T04:15:37.206Z,27.65
2023-03-05T04:17:38.652Z,22.20
2023-03-05T04:19:40.574Z,24.58
2023-03-05T04:21:42.267Z,24.85
2023-03-05T04:23:43.947Z,25.77
2023-03-05T04:25:45.373Z,31.77
2023-03-05T04:27:46.955Z,24.95
2023-03-05T04:29:48.493Z,37.42
2023-03-05T04:31:49.903Z,32.53
2023-03-05T04:33:51.403Z,29.77
2023-03-05T04:35:53.209Z,21.77
2023-03-05T04:37:54.753Z,21.27
2023-03-05T04:39:56.706Z,21.15
2023-03-05T04:41:58.172Z,19.70
2023-03-05T04:43:59.560Z,25.23
2023-03-05T04:46:01.084Z,26.00
2023-03-05T04:48:02.547Z,25.30
2023-03-05T04:50:05.761Z,18.23
2023-03-05T04:52:07.505Z,20.33
2023-03-05T04:54:09.061Z,20.35
2023-03-05T04:56:10.465Z,25.50
2023-03-05T04:58:12.094Z,25.42
2023-03-05T05:00:16.406Z,20.77
2023-03-05T05:02:17.832Z,25.20
2023-03-05T05:04:19.345Z,25.98
2023-03-05T05:06:20.744Z,69.90
2023-03-05T05:08:22.498Z,67.18
2023-03-05T05:10:25.865Z,43.63
2023-03-05T05:12:31.126Z,67.70
2023-03-05T05:14:34.396Z,31.63
2023-03-05T05:16:35.884Z,28.60
2023-03-05T05:18:37.426Z,31.33
2023-03-05T05:20:39.519Z,23.63
2023-03-05T05:22:41.606Z,23.42
2023-03-05T05:24:43.079Z,24.05
2023-03-05T05:26:44.480Z,23.55
2023-03-05T05:28:46.006Z,20.15
2023-03-05T05:30:47.385Z,26.55
2023-03-05T05:32:48.806Z,24.90
2023-03-05T05:34:59.745Z,22.95
2023-03-05T05:37:01.126Z,20.40
2023-03-05T05:39:02.633Z,19.67
2023-03-05T05:41:10.690Z,30.40
2023-03-05T05:43:12.085Z,32.42
2023-03-05T05:45:13.549Z,26.50
2023-03-05T05:47:16.535Z,33.58
2023-03-05T05:49:18.196Z,29.17
2023-03-05T05:51:22.249Z,34.90
2023-03-05T05:53:23.930Z,36.00
2023-03-05T05:55:25.312Z,37.28
2023-03-05T05:57:26.720Z,35.58
2023-03-05T05:59:28.198Z,21.33
2023-03-05T06:01:32.912Z,21.35
2023-03-05T06:03:34.371Z,20.60
2023-03-05T06:05:36.040Z,35.47
2023-03-05T06:07:37.453Z,21.55
2023-03-05T06:09:38.896Z,20.13
2023-03-05T06:11:40.644Z,27.40
2023-03-05T06:13:42.434Z,21.05
2023-03-05T06:15:43.828Z,21.02
2023-03-05T06:17:45.978Z,27.80
2023-03-05T06:19:47.376Z,24.52
2023-03-05T06:21:48.782Z,28.50
2023-03-05T06:23:50.695Z,23.15
2023-03-05T06:25:52.568Z,22.73
2023-03-05T06:27:54.032Z,23.45
2023-03-05T06:29:55.678Z,27.15
2023-03-05T06:31:57.346Z,22.40
2023-03-05T06:34:00.787Z,20.80
2023-03-05T06:36:07.108Z,23.60
2023-03-05T06:38:09.304Z,22.23
2023-03-05T06:40:11.478Z,21.35
2023-03-05T06:42:13.253Z,22.98
2023-03-05T06:44:14.663Z,22.08
2023-03-05T06:46:20.438Z,24.23
2023-03-05T06:48:22.194Z,22.80
2023-03-05T06:50:23.635Z,22.17
2023-03-05T06:52:25.045Z,22.60
2023-03-05T06:54:26.647Z,21.42
2023-03-05T06:56:28.100Z,25.00
2023-03-05T06:58:29.589Z,22.38
2023-03-05T07:00:31.585Z,23.33
2023-03-05T07:02:33.017Z,20.83
2023-03-05T07:04:34.468Z,22.00
2023-03-05T07:06:37.316Z,24.70
2023-03-05T07:08:39.240Z,21.42
2023-03-05T07:10:42.327Z,25.10
2023-03-05T07:12:43.965Z,20.45
2023-03-05T07:14:45.396Z,39.53
2023-03-05T07:16:46.845Z,37.20
2023-03-05T07:18:48.897Z,104.75
2023-03-05T07:20:50.331Z,39.33
2023-03-05T07:22:51.732Z,48.92
2023-03-05T07:24:53.529Z,156.10
2023-03-05T07:26:55.060Z,415.48
2023-03-05T07:28:56.934Z,125.57
2023-03-05T07:31:00.788Z,365.88
2023-03-05T07:33:02.202Z,405.17
2023-03-05T07:35:03.944Z,83.63
2023-03-05T07:37:05.540Z,83.28
2023-03-05T07:39:06.955Z,305.27
2023-03-05T07:41:11.969Z,183.43
2023-03-05T07:43:13.451Z,145.15
2023-03-05T07:45:14.857Z,44.22
2023-03-05T07:47:16.365Z,172.18
2023-03-05T07:49:17.863Z,98.03
2023-03-05T07:51:19.468Z,30.83
2023-03-05T07:53:20.872Z,28.92
2023-03-05T07:55:22.475Z,22.90
2023-03-05T07:57:23.902Z,21.60
2023-03-05T07:59:25.301Z,25.45
2023-03-05T08:01:28.738Z,27.00
2023-03-05T08:03:30.247Z,25.45
2023-03-05T08:05:31.682Z,325.13
2023-03-05T08:07:33.099Z,404.08
2023-03-05T08:09:34.512Z,100.18
2023-03-05T08:11:35.902Z,21.48
2023-03-05T08:13:38.208Z,29.25
2023-03-05T08:15:39.703Z,241.75
2023-03-05T08:17:41.143Z,73.85
2023-03-05T08:19:42.991Z,120.22
2023-03-05T08:21:45.865Z,42.50
2023-03-05T08:23:47.630Z,21.25
2023-03-05T08:25:49.190Z,23.30
2023-03-05T08:27:55.569Z,18.40
2023-03-05T08:29:57.052Z,17.90
2023-03-05T08:31:58.604Z,20.15
2023-03-05T08:34:01.667Z,21.10
2023-03-05T08:36:03.260Z,14.45
2023-03-05T08:38:05.121Z,15.70
2023-03-05T08:40:07.091Z,18.13
2023-03-05T08:42:09.078Z,14.65
2023-03-05T08:44:10.676Z,13.32
2023-03-05T08:46:13.370Z,15.00
2023-03-05T08:48:15.196Z,14.17
2023-03-05T08:50:16.905Z,15.07
2023-03-05T08:52:18.320Z,47.63
2023-03-05T08:54:19.722Z,16.08
2023-03-05T08:56:21.451Z,16.75
2023-03-05T08:58:23.182Z,16.30
2023-03-05T09:00:24.619Z,14.15
2023-03-05T09:02:26.264Z,15.43
2023-03-05T09:04:27.672Z,18.33
2023-03-05T09:06:29.179Z,25.38
2023-03-05T09:08:31.186Z,15.07
2023-03-05T09:10:32.671Z,13.73
2023-03-05T09:12:34.159Z,14.70
2023-03-05T09:14:35.773Z,15.82
2023-03-05T09:16:37.266Z,12.90
2023-03-05T09:18:38.947Z,16.80
2023-03-05T09:20:40.652Z,17.38
2023-03-05T09:22:42.094Z,13.85
2023-03-05T09:24:43.526Z,13.20
2023-03-05T09:26:45.107Z,22.90
2023-03-05T09:28:47.755Z,15.73
2023-03-05T09:30:49.163Z,21.75
2023-03-05T09:32:50.951Z,38.33
2023-03-05T09:34:52.424Z,25.73
2023-03-05T09:36:53.834Z,20.10
2023-03-05T09:38:55.780Z,59.28
2023-03-05T09:41:16.353Z,41.45
2023-03-05T09:43:46.367Z,18.35
2023-03-05T09:46:02.286Z,15.65
2023-03-05T09:48:19.869Z,18.63
2023-03-05T09:50:47.739Z,13.43
2023-03-05T09:52:56.413Z,14.90
2023-03-05T09:54:58.021Z,20.58
2023-03-05T09:57:04.101Z,12.18
2023-03-05T09:59:18.879Z,12.10
2023-03-05T10:01:29.272Z,7.68
2023-03-05T10:03:42.938Z,11.02
2023-03-05T10:06:14.011Z,12.93
2023-03-05T10:08:21.043Z,12.57
2023-03-05T10:10:40.263Z,11.13
2023-03-05T10:12:57.483Z,8.95
2023-03-05T10:14:59.145Z,23.20
2023-03-05T10:17:34.856Z,11.93
2023-03-05T10:19:45.812Z,11.38
2023-03-05T10:21:56.473Z,11.40
2023-03-05T10:24:27.140Z,10.10
2023-03-05T10:26:40.581Z,8.13
2023-03-05T10:29:27.126Z,8.45
2023-03-05T10:31:41.455Z,7.55
2023-03-05T10:33:46.623Z,7.47
2023-03-05T10:36:06.962Z,10.23
2023-03-05T10:38:25.982Z,7.68
2023-03-05T10:40:40.515Z,7.25
2023-03-05T10:42:58.580Z,8.85
2023-03-05T10:45:01.961Z,8.73
2023-03-05T10:47:11.319Z,9.75
2023-03-05T10:49:16.802Z,10.80
2023-03-05T10:51:48.438Z,8.65
2023-03-05T10:54:01.976Z,17.65
2023-03-05T10:56:06.028Z,10.30
2023-03-05T10:58:13.410Z,7.70
2023-03-05T11:00:18.220Z,7.97
2023-03-05T11:02:21.345Z,8.75
2023-03-05T11:04:28.592Z,11.07
2023-03-05T11:06:32.620Z,9.80
2023-03-05T11:08:35.836Z,10.65
2023-03-05T11:10:37.399Z,6.80
2023-03-05T11:12:39.119Z,8.60
2023-03-05T11:14:44.282Z,7.97
2023-03-05T11:16:48.138Z,10.30
2023-03-05T11:18:50.117Z,11.18
2023-03-05T11:20:52.591Z,16.67
2023-03-05T11:23:09.358Z,9.15
2023-03-05T11:25:10.717Z,10.10
2023-03-05T11:27:50.650Z,7.68
2023-03-05T11:29:53.160Z,21.95
2023-03-05T11:31:54.868Z,73.00
2023-03-05T11:34:02.850Z,20.98
2023-03-05T11:36:12.957Z,22.63
2023-03-05T11:38:26.986Z,26.17
2023-03-05T11:42:32.060Z,49.10
2023-03-05T11:44:45.295Z,26.83
2023-03-05T11:46:54.357Z,35.38
2023-03-05T11:48:56.410Z,27.48
2023-03-05T11:51:00.170Z,31.33
2023-03-05T11:53:13.796Z,30.30
2023-03-05T11:55:18.287Z,21.17
2023-03-05T11:57:23.872Z,25.35
2023-03-05T11:59:34.348Z,43.30
2023-03-05T12:01:43.840Z,37.70
2023-03-05T12:03:45.907Z,40.95
2023-03-05T12:05:58.672Z,21.30
2023-03-05T12:08:02.411Z,18.13
2023-03-05T12:10:04.311Z,15.95
2023-03-05T12:12:24.350Z,16.35
2023-03-05T12:14:35.734Z,10.75
2023-03-05T12:16:50.825Z,17.00
2023-03-05T12:19:16.316Z,18.27
2023-03-05T12:21:34.668Z,30.10
2023-03-05T12:23:54.830Z,22.08
2023-03-05T12:25:58.813Z,34.72
2023-03-05T12:28:00.904Z,25.30
2023-03-05T12:30:03.402Z,22.17
2023-03-05T12:32:25.751Z,18.77
2023-03-05T12:34:46.272Z,15.48
2023-03-05T12:36:47.654Z,22.83
2023-03-05T12:38:56.825Z,17.75
2023-03-05T12:41:23.256Z,18.13
2023-03-05T12:43:33.044Z,23.40
2023-03-05T12:45:39.837Z,14.80
2023-03-05T12:47:56.618Z,15.38
2023-03-05T12:49:58.192Z,12.85
2023-03-05T12:51:59.644Z,16.73
2023-03-05T12:54:26.097Z,13.40
2023-03-05T12:56:30.622Z,17.88
2023-03-05T12:58:46.815Z,14.88
2023-03-05T13:01:04.444Z,15.23
2023-03-05T13:03:11.753Z,15.20
2023-03-05T13:05:48.451Z,14.32
2023-03-05T13:07:50.717Z,15.93
2023-03-05T13:09:53.958Z,17.13
2023-03-05T13:11:56.197Z,15.30
2023-03-05T13:13:58.424Z,16.85
2023-03-05T13:16:01.084Z,54.88
2023-03-05T13:18:04.157Z,31.90
2023-03-05T13:20:28.959Z,31.00
2023-03-05T13:22:30.426Z,33.95
2023-03-05T13:24:31.926Z,28.02
2023-03-05T13:26:37.967Z,48.88
2023-03-05T13:28:39.432Z,51.67
2023-03-05T13:30:56.355Z,31.55
2023-03-05T13:33:01.519Z,19.52
2023-03-05T13:35:03.039Z,29.85
2023-03-05T13:37:17.424Z,35.80
2023-03-05T13:39:22.868Z,32.38
2023-03-05T13:41:26.692Z,25.65
2023-03-05T13:43:28.092Z,16.75
2023-03-05T13:45:31.807Z,13.02
2023-03-05T13:47:35.640Z,15.73
2023-03-05T13:49:37.184Z,13.77
2023-03-05T13:51:56.278Z,15.13
2023-03-05T13:53:57.805Z,19.60
2023-03-05T13:56:05.863Z,16.65
2023-03-05T13:58:43.957Z,21.15
2023-03-05T14:00:45.614Z,30.25
2023-03-05T14:02:47.040Z,20.42
2023-03-05T14:04:48.779Z,23.15
2023-03-05T14:06:56.201Z,37.45
2023-03-05T14:09:17.799Z,27.83
2023-03-05T14:11:20.188Z,22.23
2023-03-05T14:13:24.194Z,23.30
2023-03-05T14:15:31.543Z,22.98
2023-03-05T14:17:51.362Z,15.40
2023-03-05T14:20:13.393Z,23.02
2023-03-05T14:22:35.472Z,18.80
2023-03-05T14:24:37.513Z,18.73
2023-03-05T14:26:50.655Z,17.85
2023-03-05T14:29:11.523Z,19.20
2023-03-05T14:31:17.073Z,23.90
2023-03-05T14:33:23.808Z,28.15
2023-03-05T14:35:27.801Z,27.50
2023-03-05T14:37:42.374Z,24.05
2023-03-05T14:39:51.933Z,12.77
2023-03-05T14:41:53.376Z,16.90
2023-03-05T14:43:54.840Z,14.60
2023-03-05T14:45:56.356Z,16.70
2023-03-05T14:48:00.400Z,14.55
2023-03-05T14:50:02.077Z,16.58
2023-03-05T14:52:03.630Z,30.98
2023-03-05T14:54:05.480Z,18.05
2023-03-05T14:56:18.494Z,18.42
2023-03-05T14:58:22.185Z,22.50
2023-03-05T15:02:27.380Z,17.13
2023-03-05T15:04:28.889Z,20.88
2023-03-05T15:06:34.051Z,15.75
2023-03-05T15:08:35.751Z,20.25
2023-03-05T15:10:37.660Z,18.08
2023-03-05T15:12:39.060Z,15.05
2023-03-05T15:14:40.595Z,14.27
2023-03-05T15:16:44.101Z,18.92
2023-03-05T15:18:45.738Z,14.05
2023-03-05T15:20:48.531Z,13.40
2023-03-05T15:22:50.235Z,23.20
2023-03-05T15:24:51.634Z,15.00
2023-03-05T15:26:53.255Z,11.57
2023-03-05T15:28:54.742Z,22.88
2023-03-05T15:30:58.258Z,12.57
2023-03-05T15:33:05.077Z,22.35
2023-03-05T15:35:06.727Z,15.35
2023-03-05T15:37:08.136Z,26.45
2023-03-05T15:39:09.636Z,14.88
2023-03-05T15:41:11.177Z,17.05
2023-03-05T15:43:13.275Z,13.68
2023-03-05T15:45:15.374Z,22.65
2023-03-05T15:47:16.855Z,22.25
2023-03-05T15:49:19.251Z,21.42
2023-03-05T15:51:20.926Z,25.88
2023-03-05T15:53:22.705Z,22.23
2023-03-05T15:55:24.232Z,16.63
2023-03-05T15:57:26.479Z,18.77
2023-03-05T15:59:28.031Z,19.15
2023-03-05T16:01:29.519Z,14.80
2023-03-05T16:03:31.094Z,39.72
2023-03-05T16:05:35.282Z,20.73
2023-03-05T16:07:40.726Z,14.93
2023-03-05T16:09:46.252Z,27.13
2023-03-05T16:11:48.744Z,18.00
2023-03-05T16:13:50.326Z,24.67
2023-03-05T16:15:52.002Z,17.40
2023-03-05T16:17:56.138Z,42.25
2023-03-05T16:19:57.554Z,33.75
2023-03-05T16:21:59.061Z,20.67
2023-03-05T16:24:00.609Z,39.45
2023-03-05T16:26:02.175Z,27.35
2023-03-05T16:28:03.623Z,29.70
2023-03-05T16:30:06.141Z,43.88
2023-03-05T16:32:07.684Z,30.15
2023-03-05T16:34:09.602Z,38.53
2023-03-05T16:36:11.059Z,52.42
2023-03-05T16:38:12.455Z,50.53
2023-03-05T16:40:14.142Z,46.15
2023-03-05T16:42:16.409Z,48.42
2023-03-05T16:44:17.859Z,44.92
2023-03-05T16:46:20.206Z,45.70
2023-03-05T16:48:22.263Z,44.15
2023-03-05T16:50:24.188Z,66.03
2023-03-05T16:52:25.711Z,68.82
2023-03-05T16:54:27.511Z,48.92
2023-03-05T16:56:28.960Z,35.33
2023-03-05T16:58:31.690Z,45.38
2023-03-05T17:00:33.317Z,62.33
2023-03-05T17:02:35.149Z,75.07
2023-03-05T17:04:37.103Z,58.88
2023-03-05T17:06:38.577Z,52.97
2023-03-05T17:08:41.654Z,48.17
2023-03-05T17:10:43.558Z,32.15
2023-03-05T17:12:45.060Z,41.97
2023-03-05T17:14:46.462Z,36.50
2023-03-05T17:16:48.183Z,34.25
2023-03-05T17:18:50.029Z,32.95
2023-03-05T17:20:52.056Z,29.42
2023-03-05T17:22:53.887Z,27.40
2023-03-05T17:24:55.386Z,23.05
2023-03-05T17:26:56.801Z,24.35
2023-03-05T17:29:01.799Z,21.45
2023-03-05T17:31:03.411Z,24.85
2023-03-05T17:33:06.164Z,26.48
2023-03-05T17:35:16.336Z,25.58
2023-03-05T17:37:17.965Z,24.30
2023-03-05T17:39:19.443Z,23.20
2023-03-05T17:41:21.748Z,21.65
2023-03-05T17:43:23.401Z,32.97
2023-03-05T17:45:25.658Z,27.00
2023-03-05T17:47:27.168Z,32.72
2023-03-05T17:49:28.695Z,26.35
2023-03-05T17:51:30.080Z,23.50
2023-03-05T17:53:31.586Z,28.63
2023-03-05T17:55:33.806Z,28.50
2023-03-05T17:57:37.150Z,27.10
2023-03-05T17:59:38.623Z,27.23
2023-03-05T18:01:40.121Z,24.15
2023-03-05T18:03:41.503Z,27.08
2023-03-05T18:05:42.982Z,22.95
2023-03-05T18:07:44.561Z,25.77
2023-03-05T18:09:45.956Z,27.42
2023-03-05T18:11:47.550Z,27.05
2023-03-05T18:13:49.126Z,26.60
2023-03-05T18:15:50.683Z,27.00
2023-03-05T18:17:52.704Z,27.15
2023-03-05T18:19:54.226Z,24.95
2023-03-05T18:21:55.630Z,21.83
2023-03-05T18:23:57.414Z,23.13
2023-03-05T18:25:58.916Z,23.23
2023-03-05T18:28:01.976Z,21.65
2023-03-05T18:30:03.720Z,34.45
2023-03-05T18:32:05.488Z,59.83
2023-03-05T18:34:06.970Z,52.28
2023-03-05T18:36:08.645Z,173.05
2023-03-05T18:38:10.156Z,209.98
2023-03-05T18:40:19.395Z,37.47
2023-03-05T18:42:21.034Z,85.82
2023-03-05T18:44:22.780Z,41.75
2023-03-05T18:46:24.664Z,52.42
2023-03-05T18:48:26.317Z,100.20
2023-03-05T18:50:29.070Z,203.75
2023-03-05T18:52:30.465Z,101.00
2023-03-05T18:54:31.940Z,213.40
2023-03-05T18:56:34.074Z,107.70
2023-03-05T18:58:36.229Z,128.23
2023-03-05T19:00:37.786Z,97.55
2023-03-05T19:02:39.338Z,76.50
2023-03-05T19:04:40.934Z,53.85
2023-03-05T19:06:42.565Z,83.07
2023-03-05T19:08:44.766Z,72.70
2023-03-05T19:10:47.159Z,49.10
2023-03-05T19:12:50.013Z,66.55
2023-03-05T19:14:51.508Z,98.75
2023-03-05T19:16:52.892Z,59.88
2023-03-05T19:19:01.332Z,57.00
2023-03-05T19:21:02.910Z,86.50
2023-03-05T19:23:04.492Z,71.07
2023-03-05T19:25:06.595Z,167.40
2023-03-05T19:27:08.075Z,91.80
2023-03-05T19:29:10.153Z,59.97
2023-03-05T19:31:14.232Z,52.30
2023-03-05T19:33:15.788Z,40.55
2023-03-05T19:35:18.136Z,65.20
2023-03-05T19:37:19.704Z,61.97
2023-03-05T19:39:21.282Z,113.38
2023-03-05T19:41:23.180Z,131.38
2023-03-05T19:43:24.679Z,383.48
2023-03-05T19:45:26.313Z,212.27
2023-03-05T19:47:27.811Z,68.05
2023-03-05T19:49:29.336Z,127.63
2023-03-05T19:51:30.818Z,197.65
2023-03-05T19:53:32.211Z,144.65
2023-03-05T19:55:33.761Z,183.50
2023-03-05T19:57:35.346Z,141.32
2023-03-05T19:59:36.765Z,118.00
2023-03-05T20:01:38.313Z,153.02
2023-03-05T20:03:40.344Z,113.43
2023-03-05T20:05:41.749Z,65.25
2023-03-05T20:07:43.388Z,77.45
2023-03-05T20:09:44.896Z,48.75
2023-03-05T20:11:47.079Z,52.97
2023-03-05T20:13:49.079Z,58.58
2023-03-05T20:15:50.587Z,47.92
2023-03-05T20:17:53.062Z,52.63
2023-03-05T20:19:54.543Z,74.63
2023-03-05T20:21:56.125Z,53.08
2023-03-05T20:24:01.813Z,73.40
2023-03-05T20:26:04.573Z,175.00
2023-03-05T20:28:06.157Z,288.92
2023-03-05T20:30:08.985Z,149.20
2023-03-05T20:32:10.582Z,175.65
2023-03-05T20:34:14.696Z,366.25
2023-03-05T20:36:16.632Z,362.70
2023-03-05T20:38:28.785Z,60.15
2023-03-05T20:40:30.342Z,114.50
2023-03-05T20:42:31.733Z,142.23
2023-03-05T20:44:33.213Z,173.23
2023-03-05T20:46:37.686Z,223.32
2023-03-05T20:48:39.105Z,293.98
2023-03-05T20:50:40.940Z,315.75
2023-03-05T20:52:42.527Z,95.03
2023-03-05T20:54:43.986Z,164.15
2023-03-05T20:56:45.624Z,164.38
2023-03-05T20:58:47.125Z,128.82
2023-03-05T21:00:48.547Z,138.90
2023-03-05T21:02:51.039Z,120.07
2023-03-05T21:04:52.984Z,83.88
2023-03-05T21:06:54.401Z,60.33
2023-03-05T21:08:56.299Z,120.57
2023-03-05T21:10:58.844Z,162.75
2023-03-05T21:13:00.953Z,87.20
2023-03-05T21:15:02.638Z,124.82
2023-03-05T21:17:04.986Z,267.35
2023-03-05T21:19:06.369Z,71.57
2023-03-05T21:21:08.664Z,58.92
2023-03-05T21:23:10.208Z,254.98
2023-03-05T21:25:16.483Z,60.33
2023-03-05T21:27:17.995Z,68.03
2023-03-05T21:29:19.507Z,89.47
2023-03-05T21:31:22.894Z,64.38
2023-03-05T21:35:28.005Z,55.30
2023-03-05T21:37:29.418Z,91.68
2023-03-05T21:39:30.940Z,104.95
2023-03-05T21:41:32.422Z,86.30
2023-03-05T21:43:34.129Z,54.75
2023-03-05T21:45:35.733Z,56.70
2023-03-05T21:47:37.267Z,52.08
2023-03-05T21:49:38.703Z,74.18
2023-03-05T21:51:40.219Z,56.30
2023-03-05T21:53:42.142Z,78.10
2023-03-05T21:55:43.784Z,109.05
2023-03-05T21:57:45.997Z,88.47
2023-03-05T21:59:47.560Z,75.75
2023-03-05T22:01:50.361Z,74.45
2023-03-05T22:03:53.650Z,112.85
2023-03-05T22:05:56.082Z,103.55
2023-03-05T22:07:57.598Z,76.25
2023-03-05T22:09:59.474Z,51.67
2023-03-05T22:12:00.979Z,57.33
2023-03-05T22:14:02.389Z,84.95
2023-03-05T22:16:04.298Z,69.95
2023-03-05T22:18:05.858Z,55.35
2023-03-05T22:20:07.675Z,81.45
2023-03-05T22:22:09.097Z,53.28
2023-03-05T22:24:10.677Z,126.80
2023-03-05T22:26:12.122Z,57.08
2023-03-05T22:28:13.622Z,82.50
2023-03-05T22:30:15.108Z,71.65
2023-03-05T22:32:16.539Z,54.42
2023-03-05T22:34:17.989Z,44.15
2023-03-05T22:36:19.824Z,43.13
2023-03-05T22:38:22.165Z,42.97
2023-03-05T22:40:23.728Z,44.70
2023-03-05T22:42:25.196Z,42.38
2023-03-05T22:44:26.632Z,42.67
2023-03-05T22:46:28.215Z,46.92
2023-03-05T22:48:29.667Z,43.78
2023-03-05T22:50:31.255Z,53.10
2023-03-05T22:52:33.196Z,63.75
2023-03-05T22:54:34.807Z,45.88
2023-03-05T22:56:36.479Z,46.05
2023-03-05T22:58:38.501Z,42.30
2023-03-05T23:00:40.368Z,56.70
2023-03-05T23:02:42.509Z,44.33
2023-03-05T23:04:46.315Z,82.05
2023-03-05T23:06:47.870Z,47.33
2023-03-05T23:08:49.286Z,44.03
2023-03-05T23:10:51.026Z,43.70
2023-03-05T23:12:53.695Z,42.67
2023-03-05T23:14:55.333Z,46.87
2023-03-05T23:16:56.866Z,42.28
2023-03-05T23:18:58.390Z,42.00
2023-03-05T23:20:59.779Z,49.83
2023-03-05T23:23:01.433Z,50.95
2023-03-05T23:25:03.088Z,43.60
2023-03-05T23:27:06.469Z,53.22
2023-03-05T23:29:08.001Z,47.53
2023-03-05T23:31:09.414Z,45.75
2023-03-05T23:33:19.237Z,47.47
2023-03-05T23:35:26.969Z,51.60
2023-03-05T23:37:28.471Z,44.53
2023-03-05T23:39:29.868Z,44.88
2023-03-05T23:41:31.377Z,49.60
2023-03-05T23:43:32.784Z,49.78
2023-03-05T23:45:34.351Z,67.95
2023-03-05T23:47:36.233Z,59.88
2023-03-05T23:49:37.769Z,53.00
2023-03-05T23:51:39.184Z,58.67
2023-03-05T23:53:40.686Z,53.85
2023-03-05T23:55:44.457Z,53.83
2023-03-05T23:57:46.911Z,52.95
2023-03-05T23:59:48.447Z,54.47
